sensor_id;sensor_type;location;lat;lon;timestamp;temperature;humidity
12853;DHT22;6495;51.808;7.478;2022-12-05T00:02:06;3.40;99.90
12853;DHT22;6495;51.808;7.478;2022-12-05T00:04:53;3.40;99.90
12853;DHT22;6495;51.808;7.478;2022-12-05T00:07:41;3.40;99.90
12853;DHT22;6495;51.808;7.478;2022-12-05T00:10:27;3.40;99.90
12853;DHT22;6495;51.808;7.478;2022-12-05T00:13:14;3.40;99.90
12853;DHT22;6495;51.808;7.478;2022-12-05T00:16:02;3.40;99.90
12853;DHT22;6495;51.808;7.478;2022-12-05T00:18:52;3.40;99.90
12853;DHT22;6495;51.808;7.478;2022-12-05T00:21:40;3.40;99.90
12853;DHT22;6495;51.808;7.478;2022-12-05T00:24:29;3.40;99.90
12853;DHT22;6495;51.808;7.478;2022-12-05T00:27:16;3.40;99.90
12853;DHT22;6495;51.808;7.478;2022-12-05T00:30:04;3.40;99.90
12853;DHT22;6495;51.808;7.478;2022-12-05T00:32:52;3.40;99.90
12853;DHT22;6495;51.808;7.478;2022-12-05T00:35:39;3.40;99.90
12853;DHT22;6495;51.808;7.478;2022-12-05T00:38:25;3.40;99.90
12853;DHT22;6495;51.808;7.478;2022-12-05T00:41:17;3.40;99.90
12853;DHT22;6495;51.808;7.478;2022-12-05T00:44:05;3.40;99.90
12853;DHT22;6495;51.808;7.478;2022-12-05T00:46:52;3.40;99.90
12853;DHT22;6495;51.808;7.478;2022-12-05T00:49:39;3.40;99.90
12853;DHT22;6495;51.808;7.478;2022-12-05T00:52:26;3.40;99.90
12853;DHT22;6495;51.808;7.478;2022-12-05T00:55:15;3.40;99.90
12853;DHT22;6495;51.808;7.478;2022-12-05T00:58:03;3.40;99.90
12853;DHT22;6495;51.808;7.478;2022-12-05T01:00:50;3.40;99.90
12853;DHT22;6495;51.808;7.478;2022-12-05T01:03:38;3.40;99.90
12853;DHT22;6495;51.808;7.478;2022-12-05T01:06:28;3.40;99.90
12853;DHT22;6495;51.808;7.478;2022-12-05T01:09:18;3.40;99.90
12853;DHT22;6495;51.808;7.478;2022-12-05T01:12:06;3.40;99.90
12853;DHT22;6495;51.808;7.478;2022-12-05T01:14:54;3.40;99.90
12853;DHT22;6495;51.808;7.478;2022-12-05T01:17:44;3.40;99.90
12853;DHT22;6495;51.808;7.478;2022-12-05T01:20:30;3.40;99.90
12853;DHT22;6495;51.808;7.478;2022-12-05T01:23:17;3.40;99.90
12853;DHT22;6495;51.808;7.478;2022-12-05T01:26:07;3.40;99.90
12853;DHT22;6495;51.808;7.478;2022-12-05T01:28:54;3.40;99.90
12853;DHT22;6495;51.808;7.478;2022-12-05T01:31:43;3.40;99.90
12853;DHT22;6495;51.808;7.478;2022-12-05T01:34:30;3.40;99.90
12853;DHT22;6495;51.808;7.478;2022-12-05T01:37:17;3.40;99.90
12853;DHT22;6495;51.808;7.478;2022-12-05T01:40:05;3.40;99.90
12853;DHT22;6495;51.808;7.478;2022-12-05T01:42:53;3.40;99.90
12853;DHT22;6495;51.808;7.478;2022-12-05T01:45:44;3.40;99.90
12853;DHT22;6495;51.808;7.478;2022-12-05T01:48:35;3.40;99.90
12853;DHT22;6495;51.808;7.478;2022-12-05T01:51:22;3.40;99.90
12853;DHT22;6495;51.808;7.478;2022-12-05T01:54:09;3.40;99.90
12853;DHT22;6495;51.808;7.478;2022-12-05T01:56:59;3.40;99.90
12853;DHT22;6495;51.808;7.478;2022-12-05T01:59:51;3.40;99.90
12853;DHT22;6495;51.808;7.478;2022-12-05T02:02:47;3.40;99.90
12853;DHT22;6495;51.808;7.478;2022-12-05T02:05:39;3.40;99.90
12853;DHT22;6495;51.808;7.478;2022-12-05T02:08:27;3.50;99.90
12853;DHT22;6495;51.808;7.478;2022-12-05T02:11:14;3.40;99.90
12853;DHT22;6495;51.808;7.478;2022-12-05T02:14:13;3.40;99.90
12853;DHT22;6495;51.808;7.478;2022-12-05T02:17:13;3.50;99.90
12853;DHT22;6495;51.808;7.478;2022-12-05T02:20:19;3.50;99.90
12853;DHT22;6495;51.808;7.478;2022-12-05T02:23:28;3.50;99.90
12853;DHT22;6495;51.808;7.478;2022-12-05T02:30:06;3.50;99.90
12853;DHT22;6495;51.808;7.478;2022-12-05T02:33:05;3.50;99.90
12853;DHT22;6495;51.808;7.478;2022-12-05T02:36:03;3.50;99.90
12853;DHT22;6495;51.808;7.478;2022-12-05T02:38:59;3.50;99.90
12853;DHT22;6495;51.808;7.478;2022-12-05T02:41:55;3.50;99.90
12853;DHT22;6495;51.808;7.478;2022-12-05T02:44:52;3.50;99.90
12853;DHT22;6495;51.808;7.478;2022-12-05T02:47:46;3.50;99.90
12853;DHT22;6495;51.808;7.478;2022-12-05T02:50:36;3.50;99.90
12853;DHT22;6495;51.808;7.478;2022-12-05T02:53:26;3.50;99.90
12853;DHT22;6495;51.808;7.478;2022-12-05T02:56:15;3.50;99.90
12853;DHT22;6495;51.808;7.478;2022-12-05T02:59:03;3.50;99.90
12853;DHT22;6495;51.808;7.478;2022-12-05T03:01:50;3.50;99.90
12853;DHT22;6495;51.808;7.478;2022-12-05T03:04:39;3.50;99.90
12853;DHT22;6495;51.808;7.478;2022-12-05T03:07:28;3.50;99.90
12853;DHT22;6495;51.808;7.478;2022-12-05T03:10:20;3.50;99.90
12853;DHT22;6495;51.808;7.478;2022-12-05T03:13:13;3.50;99.90
12853;DHT22;6495;51.808;7.478;2022-12-05T03:16:09;3.50;99.90
12853;DHT22;6495;51.808;7.478;2022-12-05T03:19:05;3.50;99.90
12853;DHT22;6495;51.808;7.478;2022-12-05T03:22:01;3.50;99.90
12853;DHT22;6495;51.808;7.478;2022-12-05T03:24:52;3.60;99.90
12853;DHT22;6495;51.808;7.478;2022-12-05T03:27:45;3.60;99.90
12853;DHT22;6495;51.808;7.478;2022-12-05T03:30:37;3.60;99.90
12853;DHT22;6495;51.808;7.478;2022-12-05T03:33:26;3.60;99.90
12853;DHT22;6495;51.808;7.478;2022-12-05T03:36:22;3.50;99.90
12853;DHT22;6495;51.808;7.478;2022-12-05T03:39:20;3.60;99.90
12853;DHT22;6495;51.808;7.478;2022-12-05T03:42:11;3.60;99.90
12853;DHT22;6495;51.808;7.478;2022-12-05T03:45:02;3.60;99.90
12853;DHT22;6495;51.808;7.478;2022-12-05T03:47:58;3.60;99.90
12853;DHT22;6495;51.808;7.478;2022-12-05T03:50:50;3.50;99.90
12853;DHT22;6495;51.808;7.478;2022-12-05T03:53:41;3.60;99.90
12853;DHT22;6495;51.808;7.478;2022-12-05T03:56:36;3.60;99.90
12853;DHT22;6495;51.808;7.478;2022-12-05T03:59:31;3.60;99.90
12853;DHT22;6495;51.808;7.478;2022-12-05T04:02:24;3.60;99.90
12853;DHT22;6495;51.808;7.478;2022-12-05T04:05:18;3.60;99.90
12853;DHT22;6495;51.808;7.478;2022-12-05T04:08:12;3.50;99.90
12853;DHT22;6495;51.808;7.478;2022-12-05T04:11:07;3.60;99.90
12853;DHT22;6495;51.808;7.478;2022-12-05T04:14:01;3.60;99.90
12853;DHT22;6495;51.808;7.478;2022-12-05T04:16:56;3.60;99.90
12853;DHT22;6495;51.808;7.478;2022-12-05T04:19:52;3.50;99.90
12853;DHT22;6495;51.808;7.478;2022-12-05T04:23:00;3.50;99.90
12853;DHT22;6495;51.808;7.478;2022-12-05T04:25:53;3.60;99.90
12853;DHT22;6495;51.808;7.478;2022-12-05T04:28:49;3.50;99.90
12853;DHT22;6495;51.808;7.478;2022-12-05T04:31:46;3.50;99.90
12853;DHT22;6495;51.808;7.478;2022-12-05T04:34:39;3.50;99.90
12853;DHT22;6495;51.808;7.478;2022-12-05T04:37:29;3.50;99.90
12853;DHT22;6495;51.808;7.478;2022-12-05T04:40:23;3.60;99.90
12853;DHT22;6495;51.808;7.478;2022-12-05T04:43:15;3.60;99.90
12853;DHT22;6495;51.808;7.478;2022-12-05T04:46:07;3.60;99.90
12853;DHT22;6495;51.808;7.478;2022-12-05T04:49:02;3.60;99.90
12853;DHT22;6495;51.808;7.478;2022-12-05T04:51:55;3.60;99.90
12853;DHT22;6495;51.808;7.478;2022-12-05T04:54:48;3.60;99.90
12853;DHT22;6495;51.808;7.478;2022-12-05T04:57:43;3.60;99.90
12853;DHT22;6495;51.808;7.478;2022-12-05T05:00:43;3.60;99.90
12853;DHT22;6495;51.808;7.478;2022-12-05T05:03:37;3.60;99.90
12853;DHT22;6495;51.808;7.478;2022-12-05T05:06:28;3.60;99.90
12853;DHT22;6495;51.808;7.478;2022-12-05T05:09:15;3.60;99.90
12853;DHT22;6495;51.808;7.478;2022-12-05T05:12:02;3.60;99.90
12853;DHT22;6495;51.808;7.478;2022-12-05T05:14:50;3.60;99.90
12853;DHT22;6495;51.808;7.478;2022-12-05T05:17:37;3.60;99.90
12853;DHT22;6495;51.808;7.478;2022-12-05T05:20:26;3.60;99.90
12853;DHT22;6495;51.808;7.478;2022-12-05T05:23:14;3.60;99.90
12853;DHT22;6495;51.808;7.478;2022-12-05T05:26:01;3.60;99.90
12853;DHT22;6495;51.808;7.478;2022-12-05T05:28:48;3.60;99.90
12853;DHT22;6495;51.808;7.478;2022-12-05T05:31:36;3.60;99.90
12853;DHT22;6495;51.808;7.478;2022-12-05T05:34:23;3.70;99.90
12853;DHT22;6495;51.808;7.478;2022-12-05T05:37:13;3.70;99.90
12853;DHT22;6495;51.808;7.478;2022-12-05T05:40:05;3.70;99.90
12853;DHT22;6495;51.808;7.478;2022-12-05T05:42:55;3.70;99.90
12853;DHT22;6495;51.808;7.478;2022-12-05T05:45:42;3.70;99.90
12853;DHT22;6495;51.808;7.478;2022-12-05T05:48:28;3.70;99.90
12853;DHT22;6495;51.808;7.478;2022-12-05T05:51:17;3.70;99.90
12853;DHT22;6495;51.808;7.478;2022-12-05T05:54:05;3.70;99.90
12853;DHT22;6495;51.808;7.478;2022-12-05T05:56:55;3.70;99.90
12853;DHT22;6495;51.808;7.478;2022-12-05T05:59:48;3.70;99.90
12853;DHT22;6495;51.808;7.478;2022-12-05T06:02:45;3.70;99.90
12853;DHT22;6495;51.808;7.478;2022-12-05T06:05:32;3.70;99.90
12853;DHT22;6495;51.808;7.478;2022-12-05T06:08:19;3.70;99.90
12853;DHT22;6495;51.808;7.478;2022-12-05T06:11:06;3.70;99.90
12853;DHT22;6495;51.808;7.478;2022-12-05T06:13:59;3.70;99.90
12853;DHT22;6495;51.808;7.478;2022-12-05T06:16:46;3.70;99.90
12853;DHT22;6495;51.808;7.478;2022-12-05T06:19:33;3.70;99.90
12853;DHT22;6495;51.808;7.478;2022-12-05T06:22:20;3.70;99.90
12853;DHT22;6495;51.808;7.478;2022-12-05T06:25:09;3.70;99.90
12853;DHT22;6495;51.808;7.478;2022-12-05T06:27:56;3.70;99.90
12853;DHT22;6495;51.808;7.478;2022-12-05T06:30:44;3.70;99.90
12853;DHT22;6495;51.808;7.478;2022-12-05T06:33:32;3.70;99.90
12853;DHT22;6495;51.808;7.478;2022-12-05T06:36:20;3.70;99.90
12853;DHT22;6495;51.808;7.478;2022-12-05T06:39:07;3.70;99.90
12853;DHT22;6495;51.808;7.478;2022-12-05T06:41:54;3.70;99.90
12853;DHT22;6495;51.808;7.478;2022-12-05T06:44:41;3.70;99.90
12853;DHT22;6495;51.808;7.478;2022-12-05T06:47:29;3.70;99.90
12853;DHT22;6495;51.808;7.478;2022-12-05T06:50:16;3.70;99.90
12853;DHT22;6495;51.808;7.478;2022-12-05T06:53:03;3.70;99.90
12853;DHT22;6495;51.808;7.478;2022-12-05T06:55:58;3.70;99.90
12853;DHT22;6495;51.808;7.478;2022-12-05T06:58:47;3.70;99.90
12853;DHT22;6495;51.808;7.478;2022-12-05T07:01:36;3.70;99.90
12853;DHT22;6495;51.808;7.478;2022-12-05T07:04:28;3.70;99.90
12853;DHT22;6495;51.808;7.478;2022-12-05T07:07:15;3.70;99.90
12853;DHT22;6495;51.808;7.478;2022-12-05T07:10:02;3.70;99.90
12853;DHT22;6495;51.808;7.478;2022-12-05T07:12:49;3.70;99.90
12853;DHT22;6495;51.808;7.478;2022-12-05T07:15:37;3.70;99.90
12853;DHT22;6495;51.808;7.478;2022-12-05T07:18:24;3.70;99.90
12853;DHT22;6495;51.808;7.478;2022-12-05T07:21:13;3.70;99.90
12853;DHT22;6495;51.808;7.478;2022-12-05T07:24:01;3.70;99.90
12853;DHT22;6495;51.808;7.478;2022-12-05T07:26:47;3.70;99.90
12853;DHT22;6495;51.808;7.478;2022-12-05T07:29:34;3.70;99.90
12853;DHT22;6495;51.808;7.478;2022-12-05T07:32:21;3.70;99.90
12853;DHT22;6495;51.808;7.478;2022-12-05T07:35:08;3.70;99.90
12853;DHT22;6495;51.808;7.478;2022-12-05T07:37:56;3.70;99.90
12853;DHT22;6495;51.808;7.478;2022-12-05T07:40:43;3.70;99.90
12853;DHT22;6495;51.808;7.478;2022-12-05T07:43:34;3.70;99.90
12853;DHT22;6495;51.808;7.478;2022-12-05T07:46:21;3.70;99.90
12853;DHT22;6495;51.808;7.478;2022-12-05T07:49:09;3.70;99.90
12853;DHT22;6495;51.808;7.478;2022-12-05T07:51:57;3.70;99.90
12853;DHT22;6495;51.808;7.478;2022-12-05T07:54:45;3.70;99.90
12853;DHT22;6495;51.808;7.478;2022-12-05T07:57:32;3.70;99.90
12853;DHT22;6495;51.808;7.478;2022-12-05T08:00:20;3.70;99.90
12853;DHT22;6495;51.808;7.478;2022-12-05T08:03:07;3.70;99.90
12853;DHT22;6495;51.808;7.478;2022-12-05T08:05:54;3.70;99.90
12853;DHT22;6495;51.808;7.478;2022-12-05T08:08:41;3.70;99.90
12853;DHT22;6495;51.808;7.478;2022-12-05T08:11:31;3.70;99.90
12853;DHT22;6495;51.808;7.478;2022-12-05T08:14:20;3.70;99.90
12853;DHT22;6495;51.808;7.478;2022-12-05T08:17:06;3.70;99.90
12853;DHT22;6495;51.808;7.478;2022-12-05T08:19:53;3.70;99.90
12853;DHT22;6495;51.808;7.478;2022-12-05T08:22:41;3.70;99.90
12853;DHT22;6495;51.808;7.478;2022-12-05T08:25:28;3.70;99.90
12853;DHT22;6495;51.808;7.478;2022-12-05T08:28:16;3.70;99.90
12853;DHT22;6495;51.808;7.478;2022-12-05T08:31:04;3.70;99.90
12853;DHT22;6495;51.808;7.478;2022-12-05T08:33:52;3.70;99.90
12853;DHT22;6495;51.808;7.478;2022-12-05T08:36:44;3.70;99.90
12853;DHT22;6495;51.808;7.478;2022-12-05T08:39:31;3.70;99.90
12853;DHT22;6495;51.808;7.478;2022-12-05T08:42:23;3.70;99.90
12853;DHT22;6495;51.808;7.478;2022-12-05T08:45:11;3.70;99.90
12853;DHT22;6495;51.808;7.478;2022-12-05T08:47:58;3.70;99.90
12853;DHT22;6495;51.808;7.478;2022-12-05T08:50:44;3.80;99.90
12853;DHT22;6495;51.808;7.478;2022-12-05T08:53:31;3.70;99.90
12853;DHT22;6495;51.808;7.478;2022-12-05T08:56:25;3.80;99.90
12853;DHT22;6495;51.808;7.478;2022-12-05T08:59:12;3.70;99.90
12853;DHT22;6495;51.808;7.478;2022-12-05T09:02:00;3.80;99.90
12853;DHT22;6495;51.808;7.478;2022-12-05T09:04:49;3.80;99.90
12853;DHT22;6495;51.808;7.478;2022-12-05T09:07:38;3.80;99.90
12853;DHT22;6495;51.808;7.478;2022-12-05T09:10:25;3.80;99.90
12853;DHT22;6495;51.808;7.478;2022-12-05T09:13:12;3.80;99.90
12853;DHT22;6495;51.808;7.478;2022-12-05T09:16:04;3.80;99.90
12853;DHT22;6495;51.808;7.478;2022-12-05T09:18:53;3.80;99.90
12853;DHT22;6495;51.808;7.478;2022-12-05T09:21:41;3.80;99.90
12853;DHT22;6495;51.808;7.478;2022-12-05T09:24:30;3.80;99.90
12853;DHT22;6495;51.808;7.478;2022-12-05T09:27:19;3.80;99.90
12853;DHT22;6495;51.808;7.478;2022-12-05T09:30:07;3.80;99.90
12853;DHT22;6495;51.808;7.478;2022-12-05T09:32:57;3.80;99.90
12853;DHT22;6495;51.808;7.478;2022-12-05T09:35:45;3.80;99.90
12853;DHT22;6495;51.808;7.478;2022-12-05T09:38:32;3.80;99.90
12853;DHT22;6495;51.808;7.478;2022-12-05T09:41:40;3.80;99.90
12853;DHT22;6495;51.808;7.478;2022-12-05T09:45:08;3.80;99.90
12853;DHT22;6495;51.808;7.478;2022-12-05T09:48:06;3.70;99.90
12853;DHT22;6495;51.808;7.478;2022-12-05T09:51:00;3.70;99.90
12853;DHT22;6495;51.808;7.478;2022-12-05T09:53:49;3.70;99.90
12853;DHT22;6495;51.808;7.478;2022-12-05T09:56:37;3.70;99.90
12853;DHT22;6495;51.808;7.478;2022-12-05T09:59:25;3.70;99.90
12853;DHT22;6495;51.808;7.478;2022-12-05T10:02:24;3.70;99.90
12853;DHT22;6495;51.808;7.478;2022-12-05T10:05:19;3.70;99.90
12853;DHT22;6495;51.808;7.478;2022-12-05T10:08:18;3.70;99.90
12853;DHT22;6495;51.808;7.478;2022-12-05T10:11:15;3.60;99.90
12853;DHT22;6495;51.808;7.478;2022-12-05T10:14:09;3.60;99.90
12853;DHT22;6495;51.808;7.478;2022-12-05T10:17:07;3.60;99.90
12853;DHT22;6495;51.808;7.478;2022-12-05T10:20:02;3.60;99.90
12853;DHT22;6495;51.808;7.478;2022-12-05T10:22:57;3.60;99.90
12853;DHT22;6495;51.808;7.478;2022-12-05T10:25:55;3.60;99.90
12853;DHT22;6495;51.808;7.478;2022-12-05T10:28:50;3.60;99.90
12853;DHT22;6495;51.808;7.478;2022-12-05T10:31:41;3.60;99.90
12853;DHT22;6495;51.808;7.478;2022-12-05T10:34:33;3.50;99.90
12853;DHT22;6495;51.808;7.478;2022-12-05T10:37:23;3.50;99.90
12853;DHT22;6495;51.808;7.478;2022-12-05T10:40:11;3.50;99.90
12853;DHT22;6495;51.808;7.478;2022-12-05T10:43:00;3.50;99.90
12853;DHT22;6495;51.808;7.478;2022-12-05T10:45:48;3.50;99.90
12853;DHT22;6495;51.808;7.478;2022-12-05T10:48:38;3.50;99.90
12853;DHT22;6495;51.808;7.478;2022-12-05T10:51:27;3.50;99.90
12853;DHT22;6495;51.808;7.478;2022-12-05T10:54:23;3.50;99.90
12853;DHT22;6495;51.808;7.478;2022-12-05T10:57:22;3.50;99.90
12853;DHT22;6495;51.808;7.478;2022-12-05T11:00:14;3.40;99.90
12853;DHT22;6495;51.808;7.478;2022-12-05T11:03:05;3.40;99.90
12853;DHT22;6495;51.808;7.478;2022-12-05T11:06:15;3.40;99.90
12853;DHT22;6495;51.808;7.478;2022-12-05T11:09:12;3.40;99.90
12853;DHT22;6495;51.808;7.478;2022-12-05T11:12:16;3.40;99.90
12853;DHT22;6495;51.808;7.478;2022-12-05T11:15:10;3.40;99.90
12853;DHT22;6495;51.808;7.478;2022-12-05T11:18:18;3.30;99.90
12853;DHT22;6495;51.808;7.478;2022-12-05T11:21:13;3.30;99.90
12853;DHT22;6495;51.808;7.478;2022-12-05T11:24:20;3.30;99.90
12853;DHT22;6495;51.808;7.478;2022-12-05T11:27:25;3.30;99.90
12853;DHT22;6495;51.808;7.478;2022-12-05T11:30:18;3.30;99.90
12853;DHT22;6495;51.808;7.478;2022-12-05T11:33:15;3.30;99.90
12853;DHT22;6495;51.808;7.478;2022-12-05T11:36:11;3.30;99.90
12853;DHT22;6495;51.808;7.478;2022-12-05T11:39:04;3.20;99.90
12853;DHT22;6495;51.808;7.478;2022-12-05T11:42:15;3.20;99.90
12853;DHT22;6495;51.808;7.478;2022-12-05T11:45:33;3.30;99.90
12853;DHT22;6495;51.808;7.478;2022-12-05T11:48:45;3.20;99.90
12853;DHT22;6495;51.808;7.478;2022-12-05T11:51:48;3.20;99.90
12853;DHT22;6495;51.808;7.478;2022-12-05T11:54:54;3.20;99.90
12853;DHT22;6495;51.808;7.478;2022-12-05T11:58:04;3.20;99.90
12853;DHT22;6495;51.808;7.478;2022-12-05T12:01:10;3.20;99.90
12853;DHT22;6495;51.808;7.478;2022-12-05T12:04:21;3.20;99.90
12853;DHT22;6495;51.808;7.478;2022-12-05T12:07:27;3.10;99.90
12853;DHT22;6495;51.808;7.478;2022-12-05T12:10:26;3.10;99.90
12853;DHT22;6495;51.808;7.478;2022-12-05T12:13:33;3.10;99.90
12853;DHT22;6495;51.808;7.478;2022-12-05T12:16:34;3.10;99.90
12853;DHT22;6495;51.808;7.478;2022-12-05T12:19:41;3.10;99.90
12853;DHT22;6495;51.808;7.478;2022-12-05T12:22:48;3.10;99.90
12853;DHT22;6495;51.808;7.478;2022-12-05T12:26:05;3.10;99.90
12853;DHT22;6495;51.808;7.478;2022-12-05T12:29:03;3.10;99.90
12853;DHT22;6495;51.808;7.478;2022-12-05T12:32:18;3.10;99.90
12853;DHT22;6495;51.808;7.478;2022-12-05T12:35:30;3.10;99.90
12853;DHT22;6495;51.808;7.478;2022-12-05T12:38:43;3.10;99.90
12853;DHT22;6495;51.808;7.478;2022-12-05T12:42:08;3.00;99.90
12853;DHT22;6495;51.808;7.478;2022-12-05T12:45:19;3.10;99.90
12853;DHT22;6495;51.808;7.478;2022-12-05T12:48:32;3.00;99.90
12853;DHT22;6495;51.808;7.478;2022-12-05T12:51:31;3.00;99.90
12853;DHT22;6495;51.808;7.478;2022-12-05T12:54:30;3.00;99.90
12853;DHT22;6495;51.808;7.478;2022-12-05T12:58:02;3.00;99.90
12853;DHT22;6495;51.808;7.478;2022-12-05T13:01:03;3.00;99.90
12853;DHT22;6495;51.808;7.478;2022-12-05T13:04:01;3.00;99.90
12853;DHT22;6495;51.808;7.478;2022-12-05T13:06:58;3.00;99.90
12853;DHT22;6495;51.808;7.478;2022-12-05T13:09:52;3.00;99.90
12853;DHT22;6495;51.808;7.478;2022-12-05T13:12:43;3.00;99.90
12853;DHT22;6495;51.808;7.478;2022-12-05T13:15:33;3.00;99.90
12853;DHT22;6495;51.808;7.478;2022-12-05T13:18:25;3.00;99.90
12853;DHT22;6495;51.808;7.478;2022-12-05T13:21:14;3.00;99.90
12853;DHT22;6495;51.808;7.478;2022-12-05T13:24:01;3.00;99.90
12853;DHT22;6495;51.808;7.478;2022-12-05T13:26:49;3.00;99.90
12853;DHT22;6495;51.808;7.478;2022-12-05T13:29:46;3.00;99.90
12853;DHT22;6495;51.808;7.478;2022-12-05T13:32:37;2.90;99.90
12853;DHT22;6495;51.808;7.478;2022-12-05T13:35:29;3.00;99.90
12853;DHT22;6495;51.808;7.478;2022-12-05T13:38:38;2.90;99.90
12853;DHT22;6495;51.808;7.478;2022-12-05T13:41:46;2.90;99.90
12853;DHT22;6495;51.808;7.478;2022-12-05T13:44:55;2.90;99.90
12853;DHT22;6495;51.808;7.478;2022-12-05T13:47:52;2.90;99.90
12853;DHT22;6495;51.808;7.478;2022-12-05T13:50:52;2.90;99.90
12853;DHT22;6495;51.808;7.478;2022-12-05T13:53:46;2.90;99.90
12853;DHT22;6495;51.808;7.478;2022-12-05T13:56:48;2.90;99.90
12853;DHT22;6495;51.808;7.478;2022-12-05T13:59:56;2.90;99.90
12853;DHT22;6495;51.808;7.478;2022-12-05T14:02:48;2.90;99.90
12853;DHT22;6495;51.808;7.478;2022-12-05T14:05:45;2.90;99.90
12853;DHT22;6495;51.808;7.478;2022-12-05T14:08:54;2.90;99.90
12853;DHT22;6495;51.808;7.478;2022-12-05T14:15:33;2.90;99.90
12853;DHT22;6495;51.808;7.478;2022-12-05T14:18:25;2.90;99.90
12853;DHT22;6495;51.808;7.478;2022-12-05T14:21:36;2.90;99.90
12853;DHT22;6495;51.808;7.478;2022-12-05T14:24:33;2.90;99.90
12853;DHT22;6495;51.808;7.478;2022-12-05T14:27:41;2.90;99.90
12853;DHT22;6495;51.808;7.478;2022-12-05T14:30:44;2.90;99.90
12853;DHT22;6495;51.808;7.478;2022-12-05T14:33:39;2.90;99.90
12853;DHT22;6495;51.808;7.478;2022-12-05T14:36:26;2.90;99.90
12853;DHT22;6495;51.808;7.478;2022-12-05T14:39:20;2.90;99.90
12853;DHT22;6495;51.808;7.478;2022-12-05T14:42:21;2.90;99.90
12853;DHT22;6495;51.808;7.478;2022-12-05T14:45:25;2.90;99.90
12853;DHT22;6495;51.808;7.478;2022-12-05T14:48:27;2.90;99.90
12853;DHT22;6495;51.808;7.478;2022-12-05T14:51:42;2.90;99.90
12853;DHT22;6495;51.808;7.478;2022-12-05T14:54:30;2.90;99.90
12853;DHT22;6495;51.808;7.478;2022-12-05T14:57:18;2.90;99.90
12853;DHT22;6495;51.808;7.478;2022-12-05T15:00:13;2.90;99.90
12853;DHT22;6495;51.808;7.478;2022-12-05T15:03:20;2.90;99.90
12853;DHT22;6495;51.808;7.478;2022-12-05T15:06:14;2.90;99.90
12853;DHT22;6495;51.808;7.478;2022-12-05T15:09:05;2.90;99.90
12853;DHT22;6495;51.808;7.478;2022-12-05T15:12:17;2.90;99.90
12853;DHT22;6495;51.808;7.478;2022-12-05T15:15:12;2.90;99.90
12853;DHT22;6495;51.808;7.478;2022-12-05T15:18:11;2.90;99.90
12853;DHT22;6495;51.808;7.478;2022-12-05T15:21:08;2.90;99.90
12853;DHT22;6495;51.808;7.478;2022-12-05T15:24:00;2.90;99.90
12853;DHT22;6495;51.808;7.478;2022-12-05T15:26:50;2.90;99.90
12853;DHT22;6495;51.808;7.478;2022-12-05T15:29:39;2.90;99.90
12853;DHT22;6495;51.808;7.478;2022-12-05T15:32:26;2.90;99.90
12853;DHT22;6495;51.808;7.478;2022-12-05T15:35:14;2.90;99.90
12853;DHT22;6495;51.808;7.478;2022-12-05T15:38:06;2.90;99.90
12853;DHT22;6495;51.808;7.478;2022-12-05T15:40:58;2.90;99.90
12853;DHT22;6495;51.808;7.478;2022-12-05T15:43:54;2.90;99.90
12853;DHT22;6495;51.808;7.478;2022-12-05T15:46:41;2.90;99.90
12853;DHT22;6495;51.808;7.478;2022-12-05T15:49:28;2.90;99.90
12853;DHT22;6495;51.808;7.478;2022-12-05T15:52:24;2.90;99.90
12853;DHT22;6495;51.808;7.478;2022-12-05T15:55:21;2.90;99.90
12853;DHT22;6495;51.808;7.478;2022-12-05T15:58:16;2.90;99.90
12853;DHT22;6495;51.808;7.478;2022-12-05T16:01:11;2.90;99.90
12853;DHT22;6495;51.808;7.478;2022-12-05T16:04:04;2.90;99.90
12853;DHT22;6495;51.808;7.478;2022-12-05T16:07:00;2.90;99.90
12853;DHT22;6495;51.808;7.478;2022-12-05T16:09:50;2.90;99.90
12853;DHT22;6495;51.808;7.478;2022-12-05T16:12:43;2.90;99.90
12853;DHT22;6495;51.808;7.478;2022-12-05T16:15:30;2.90;99.90
12853;DHT22;6495;51.808;7.478;2022-12-05T16:18:25;2.90;99.90
12853;DHT22;6495;51.808;7.478;2022-12-05T16:21:30;2.90;99.90
12853;DHT22;6495;51.808;7.478;2022-12-05T16:24:27;2.90;99.90
12853;DHT22;6495;51.808;7.478;2022-12-05T16:27:19;2.80;99.90
12853;DHT22;6495;51.808;7.478;2022-12-05T16:30:17;2.80;99.90
12853;DHT22;6495;51.808;7.478;2022-12-05T16:33:12;2.80;99.90
12853;DHT22;6495;51.808;7.478;2022-12-05T16:36:07;2.80;99.90
12853;DHT22;6495;51.808;7.478;2022-12-05T16:39:01;2.80;99.90
12853;DHT22;6495;51.808;7.478;2022-12-05T16:41:50;2.70;99.90
12853;DHT22;6495;51.808;7.478;2022-12-05T16:44:53;2.70;99.90
12853;DHT22;6495;51.808;7.478;2022-12-05T16:47:58;2.70;99.90
12853;DHT22;6495;51.808;7.478;2022-12-05T16:50:45;2.70;99.90
12853;DHT22;6495;51.808;7.478;2022-12-05T16:53:32;2.70;99.90
12853;DHT22;6495;51.808;7.478;2022-12-05T16:56:22;2.70;99.90
12853;DHT22;6495;51.808;7.478;2022-12-05T16:59:20;2.70;99.90
12853;DHT22;6495;51.808;7.478;2022-12-05T17:02:11;2.70;99.90
12853;DHT22;6495;51.808;7.478;2022-12-05T17:05:02;2.70;99.90
12853;DHT22;6495;51.808;7.478;2022-12-05T17:07:58;2.70;99.90
12853;DHT22;6495;51.808;7.478;2022-12-05T17:10:45;2.70;99.90
12853;DHT22;6495;51.808;7.478;2022-12-05T17:13:32;2.70;99.90
12853;DHT22;6495;51.808;7.478;2022-12-05T17:16:19;2.70;99.90
12853;DHT22;6495;51.808;7.478;2022-12-05T17:19:06;2.70;99.90
12853;DHT22;6495;51.808;7.478;2022-12-05T17:21:56;2.70;99.90
12853;DHT22;6495;51.808;7.478;2022-12-05T17:24:43;2.70;99.90
12853;DHT22;6495;51.808;7.478;2022-12-05T17:27:29;2.70;99.90
12853;DHT22;6495;51.808;7.478;2022-12-05T17:30:16;2.70;99.90
12853;DHT22;6495;51.808;7.478;2022-12-05T17:33:04;2.70;99.90
12853;DHT22;6495;51.808;7.478;2022-12-05T17:35:52;2.70;99.90
12853;DHT22;6495;51.808;7.478;2022-12-05T17:38:40;2.70;99.90
12853;DHT22;6495;51.808;7.478;2022-12-05T17:41:27;2.70;99.90
12853;DHT22;6495;51.808;7.478;2022-12-05T17:44:16;2.70;99.90
12853;DHT22;6495;51.808;7.478;2022-12-05T17:47:03;2.70;99.90
12853;DHT22;6495;51.808;7.478;2022-12-05T17:49:52;2.70;99.90
12853;DHT22;6495;51.808;7.478;2022-12-05T17:52:41;2.70;99.90
12853;DHT22;6495;51.808;7.478;2022-12-05T17:55:29;2.70;99.90
12853;DHT22;6495;51.808;7.478;2022-12-05T17:58:16;2.70;99.90
12853;DHT22;6495;51.808;7.478;2022-12-05T18:01:05;2.70;99.90
12853;DHT22;6495;51.808;7.478;2022-12-05T18:03:52;2.70;99.90
12853;DHT22;6495;51.808;7.478;2022-12-05T18:06:39;2.70;99.90
12853;DHT22;6495;51.808;7.478;2022-12-05T18:09:25;2.80;99.90
12853;DHT22;6495;51.808;7.478;2022-12-05T18:12:13;2.70;99.90
12853;DHT22;6495;51.808;7.478;2022-12-05T18:15:00;2.70;99.90
12853;DHT22;6495;51.808;7.478;2022-12-05T18:17:47;2.70;99.90
12853;DHT22;6495;51.808;7.478;2022-12-05T18:20:34;2.70;99.90
12853;DHT22;6495;51.808;7.478;2022-12-05T18:23:21;2.70;99.90
12853;DHT22;6495;51.808;7.478;2022-12-05T18:26:09;2.80;99.90
12853;DHT22;6495;51.808;7.478;2022-12-05T18:28:57;2.70;99.90
12853;DHT22;6495;51.808;7.478;2022-12-05T18:31:44;2.80;99.90
12853;DHT22;6495;51.808;7.478;2022-12-05T18:34:32;2.70;99.90
12853;DHT22;6495;51.808;7.478;2022-12-05T18:37:19;2.80;99.90
12853;DHT22;6495;51.808;7.478;2022-12-05T18:40:08;2.70;99.90
12853;DHT22;6495;51.808;7.478;2022-12-05T18:42:56;2.80;99.90
12853;DHT22;6495;51.808;7.478;2022-12-05T18:45:53;2.70;99.90
12853;DHT22;6495;51.808;7.478;2022-12-05T18:48:40;2.80;99.90
12853;DHT22;6495;51.808;7.478;2022-12-05T18:51:32;2.80;99.90
12853;DHT22;6495;51.808;7.478;2022-12-05T18:54:19;2.80;99.90
12853;DHT22;6495;51.808;7.478;2022-12-05T18:57:05;2.80;99.90